Time;durP1;ratioP1;P1;durP2;ratioP2;P2;SDS_P1;SDS_P2;PMS_P1;PMS_P2;Temp;Humidity;BMP_temperature;BMP_pressure;BME280_temperature;BME280_humidity;BME280_pressure;Samples;Min_cycle;Max_cycle;Signal;HPM_P1;HPM_P2
2022/03/28 00:02:05;;;;;;;23.73;9.27;;;;;;;8.53;86.63;102694.59;5000754;28;20213;-43
2022/03/28 00:04:30;;;;;;;28.38;9.88;;;;;;;8.51;87.00;102699.16;5007623;28;20427;-44
2022/03/28 00:06:55;;;;;;;31.52;9.35;;;;;;;8.51;86.52;102696.50;4993161;28;20457;-44
2022/03/28 00:09:21;;;;;;;28.75;9.63;;;;;;;8.46;86.63;102686.16;4994353;28;20075;-45
2022/03/28 00:11:46;;;;;;;25.58;9.40;;;;;;;8.46;86.41;102685.31;5007175;28;20075;-43
2022/03/28 00:14:11;;;;;;;24.80;8.90;;;;;;;8.41;87.07;102683.75;5012084;28;20017;-46
2022/03/28 00:16:37;;;;;;;26.02;9.98;;;;;;;8.39;87.50;102683.00;5011765;28;20040;-45
2022/03/28 00:19:02;;;;;;;25.42;9.20;;;;;;;8.34;87.47;102677.13;5012444;28;20021;-43
2022/03/28 00:21:28;;;;;;;26.55;9.27;;;;;;;8.31;87.87;102669.34;5003272;28;20443;-47
2022/03/28 00:23:53;;;;;;;27.55;9.32;;;;;;;8.34;87.99;102670.97;5004628;28;20440;-46
2022/03/28 00:26:19;;;;;;;29.52;9.13;;;;;;;8.30;88.02;102670.31;5013239;28;20559;-49
2022/03/28 00:28:45;;;;;;;25.00;9.88;;;;;;;8.27;88.39;102656.34;4999721;28;20052;-47
2022/03/28 00:31:10;;;;;;;23.45;9.35;;;;;;;8.31;89.06;102655.19;5012048;28;20766;-45
2022/03/28 00:33:36;;;;;;;28.55;9.50;;;;;;;8.26;88.67;102650.16;4997829;28;20531;-44
2022/03/28 00:36:01;;;;;;;29.17;9.52;;;;;;;8.19;89.16;102644.38;5007271;28;20477;-48
2022/03/28 00:38:27;;;;;;;24.45;9.82;;;;;;;8.07;90.29;102639.88;5002667;28;20037;-47
2022/03/28 00:40:52;;;;;;;25.95;9.30;;;;;;;7.99;90.13;102637.75;4993808;28;20143;-44
2022/03/28 00:43:17;;;;;;;24.17;10.10;;;;;;;7.99;90.00;102644.84;4992108;28;20088;-48
2022/03/28 00:45:43;;;;;;;23.67;9.02;;;;;;;7.98;90.09;102646.66;4996239;28;20056;-48
2022/03/28 00:48:10;;;;;;;23.15;9.57;;;;;;;7.96;90.66;102643.25;5013112;28;20053;-44
2022/03/28 00:50:37;;;;;;;33.60;10.40;;;;;;;7.94;90.44;102633.66;5012232;28;20029;-48
2022/03/28 00:53:05;;;;;;;28.88;9.68;;;;;;;7.96;90.64;102637.94;5012388;28;20365;-48
2022/03/28 00:55:30;;;;;;;34.50;10.52;;;;;;;7.96;90.00;102635.28;4997972;28;20036;-44
2022/03/28 00:57:55;;;;;;;26.10;9.60;;;;;;;7.91;88.99;102628.50;5004505;28;20499;-46
2022/03/28 01:00:21;;;;;;;29.65;9.18;;;;;;;7.89;90.42;102618.00;5012383;28;20172;-44
2022/03/28 01:02:47;;;;;;;31.63;9.05;;;;;;;7.82;90.11;102628.19;5005534;28;20025;-47
2022/03/28 01:05:12;;;;;;;25.80;9.07;;;;;;;7.73;90.79;102628.75;4993295;28;20041;-48
2022/03/28 01:07:39;;;;;;;23.13;8.68;;;;;;;7.69;91.38;102624.59;5003676;28;20605;-46
2022/03/28 01:10:06;;;;;;;28.88;9.60;;;;;;;7.63;91.74;102617.00;5012591;28;20032;-44
2022/03/28 01:12:32;;;;;;;26.48;10.25;;;;;;;7.56;91.75;102619.19;4995865;28;20077;-44
2022/03/28 01:14:59;;;;;;;26.60;8.80;;;;;;;7.57;92.50;102620.03;4991361;28;20022;-47
2022/03/28 01:20:09;;;;;;;26.17;8.82;;;;;;;7.61;92.09;102609.13;5004573;28;20151;-45
2022/03/28 01:22:35;;;;;;;38.67;10.30;;;;;;;7.62;92.36;102607.31;4993599;28;20025;-48
2022/03/28 01:25:04;;;;;;;29.45;9.52;;;;;;;7.55;92.26;102606.88;5007571;28;20053;-45
2022/03/28 01:27:30;;;;;;;25.30;9.57;;;;;;;7.55;92.02;102598.91;4991470;28;20739;-46
2022/03/28 01:29:56;;;;;;;24.40;9.07;;;;;;;7.49;92.25;102596.63;4997981;28;20025;-43
2022/03/28 01:32:21;;;;;;;26.25;9.32;;;;;;;7.44;92.21;102593.41;5012627;28;20080;-45
2022/03/28 01:34:47;;;;;;;29.70;10.02;;;;;;;7.42;92.66;102595.31;5000419;28;20030;-45
2022/03/28 01:37:12;;;;;;;30.00;10.70;;;;;;;7.30;93.18;102583.66;5004314;28;20164;-46
2022/03/28 01:39:37;;;;;;;31.60;9.63;;;;;;;7.29;92.78;102590.75;5012910;28;20033;-45
2022/03/28 01:42:03;;;;;;;31.65;10.27;;;;;;;7.31;93.63;102589.81;5010854;28;20992;-44
2022/03/28 01:44:28;;;;;;;35.85;9.77;;;;;;;7.23;93.44;102585.84;5012653;28;20025;-45
2022/03/28 01:46:54;;;;;;;29.35;9.35;;;;;;;7.15;93.54;102584.63;5010366;28;20175;-46
2022/03/28 01:49:20;;;;;;;31.40;8.60;;;;;;;7.04;94.00;102583.47;5011479;28;20426;-47
2022/03/28 01:51:47;;;;;;;23.55;9.05;;;;;;;7.00;95.08;102579.28;5012461;28;20342;-46
2022/03/28 01:54:14;;;;;;;28.17;8.85;;;;;;;6.99;95.11;102580.25;5012267;28;20035;-49
2022/03/28 01:56:40;;;;;;;29.85;8.55;;;;;;;6.97;95.69;102581.28;5012496;28;20064;-45
2022/03/28 01:59:07;;;;;;;34.25;9.35;;;;;;;6.94;95.41;102582.31;5010171;28;20033;-47
2022/03/28 02:01:34;;;;;;;26.63;9.10;;;;;;;6.94;95.62;102584.97;5000149;28;20048;-46
2022/03/28 02:03:59;;;;;;;29.23;9.50;;;;;;;6.86;96.63;102580.16;5010653;28;20040;-47
2022/03/28 02:06:25;;;;;;;29.02;9.05;;;;;;;6.80;96.83;102575.19;5011534;28;20033;-45
2022/03/28 02:08:51;;;;;;;32.15;9.45;;;;;;;6.85;98.05;102575.78;4997737;28;20029;-49
2022/03/28 02:11:16;;;;;;;28.13;8.98;;;;;;;6.83;96.96;102567.06;5015365;28;20532;-45
2022/03/28 02:13:42;;;;;;;23.70;8.50;;;;;;;6.76;96.66;102570.19;5016298;28;20166;-43
2022/03/28 02:16:09;;;;;;;27.52;9.23;;;;;;;6.63;97.96;102572.72;5011500;28;20128;-44
2022/03/28 02:18:35;;;;;;;29.25;8.43;;;;;;;6.60;98.99;102564.94;5015585;28;20025;-47
2022/03/28 02:21:00;;;;;;;32.70;8.07;;;;;;;6.60;99.03;102559.63;5014761;28;20052;-45
2022/03/28 02:23:27;;;;;;;22.92;8.43;;;;;;;6.62;98.93;102553.28;5015547;28;20052;-49
2022/03/28 02:25:52;;;;;;;32.45;8.60;;;;;;;6.65;98.74;102552.25;5014910;28;20065;-44
2022/03/28 02:28:18;;;;;;;29.88;8.30;;;;;;;6.59;98.84;102560.59;5015036;28;20072;-44
2022/03/28 02:30:43;;;;;;;28.98;8.32;;;;;;;6.54;99.04;102569.66;4999360;28;20037;-48
2022/03/28 02:33:09;;;;;;;25.95;8.18;;;;;;;6.53;98.77;102557.38;5015138;28;20349;-45
2022/03/28 02:35:35;;;;;;;27.45;8.07;;;;;;;6.54;99.35;102564.38;5000835;28;20694;-47
2022/03/28 02:38:01;;;;;;;25.08;7.90;;;;;;;6.56;99.03;102558.97;4995677;28;20029;-43
2022/03/28 02:40:32;;;;;;;24.92;7.50;;;;;;;6.54;99.87;102556.41;5011869;28;20460;-43
2022/03/28 02:42:58;;;;;;;27.92;8.18;;;;;;;6.56;98.95;102539.53;5005717;28;20357;-47
2022/03/28 02:45:24;;;;;;;26.83;9.02;;;;;;;6.58;99.55;102542.94;5014759;28;20045;-46
2022/03/28 02:47:50;;;;;;;30.45;8.63;;;;;;;6.51;99.39;102540.66;5014907;28;20338;-49
2022/03/28 02:50:15;;;;;;;30.83;8.23;;;;;;;6.44;99.97;102527.88;5013692;28;20044;-46
2022/03/28 02:52:40;;;;;;;27.17;8.15;;;;;;;6.38;99.48;102537.03;5015696;28;20112;-45
2022/03/28 02:55:07;;;;;;;20.10;7.20;;;;;;;6.38;100.00;102525.56;5015115;28;20028;-48
2022/03/28 02:57:33;;;;;;;21.63;7.45;;;;;;;6.32;100.00;102529.44;5015034;28;20140;-46
2022/03/28 02:59:58;;;;;;;25.73;7.50;;;;;;;6.28;100.00;102523.47;5010308;28;20134;-45
2022/03/28 03:02:24;;;;;;;26.42;7.65;;;;;;;6.21;100.00;102521.25;5014303;28;20034;-49
2022/03/28 03:04:49;;;;;;;18.45;7.15;;;;;;;6.12;100.00;102512.06;5010996;28;20517;-44
2022/03/28 03:07:15;;;;;;;21.80;7.72;;;;;;;6.11;100.00;102505.91;5003878;28;20132;-48
2022/03/28 03:09:40;;;;;;;25.10;7.82;;;;;;;6.10;100.00;102513.97;5013818;28;20340;-44
2022/03/28 03:12:06;;;;;;;29.20;7.63;;;;;;;6.05;100.00;102503.59;5015400;28;20037;-46
2022/03/28 03:14:31;;;;;;;23.00;7.35;;;;;;;6.07;100.00;102508.81;5001044;28;20029;-44
2022/03/28 03:16:57;;;;;;;21.02;7.53;;;;;;;6.11;100.00;102510.34;5005399;28;20107;-46
2022/03/28 03:19:22;;;;;;;26.92;7.50;;;;;;;6.13;100.00;102505.81;4999542;28;20126;-44
2022/03/28 03:21:47;;;;;;;29.88;8.27;;;;;;;6.08;100.00;102502.59;4992483;28;20040;-47
2022/03/28 03:24:13;;;;;;;24.42;7.95;;;;;;;5.94;100.00;102509.53;4995028;28;20489;-47
2022/03/28 03:26:38;;;;;;;27.98;7.25;;;;;;;5.90;100.00;102505.31;4995333;28;20021;-45
2022/03/28 03:29:04;;;;;;;27.77;7.53;;;;;;;5.87;100.00;102507.31;4994779;28;20025;-45
2022/03/28 03:31:30;;;;;;;30.08;7.35;;;;;;;5.85;100.00;102501.25;4994052;28;20045;-46
2022/03/28 03:33:55;;;;;;;25.55;7.53;;;;;;;5.84;100.00;102494.22;4997256;28;20026;-45
2022/03/28 03:36:21;;;;;;;24.58;7.47;;;;;;;5.87;100.00;102492.28;5013734;28;20049;-47
2022/03/28 03:38:46;;;;;;;26.52;7.30;;;;;;;5.82;100.00;102493.47;5007078;28;20514;-42
2022/03/28 03:41:11;;;;;;;23.83;7.10;;;;;;;5.82;100.00;102496.97;5013035;28;20105;-47
2022/03/28 03:43:37;;;;;;;28.55;8.15;;;;;;;5.83;100.00;102490.72;5012632;28;20055;-44
2022/03/28 03:46:02;;;;;;;31.85;8.00;;;;;;;5.79;100.00;102491.88;5007762;28;20025;-47
2022/03/28 03:48:27;;;;;;;28.98;7.57;;;;;;;5.77;100.00;102486.66;5004697;28;20017;-44
2022/03/28 03:50:53;;;;;;;26.10;7.18;;;;;;;5.75;100.00;102477.94;5009153;28;20022;-46
2022/03/28 03:53:19;;;;;;;25.75;7.32;;;;;;;5.77;100.00;102477.81;4994279;28;20381;-45
2022/03/28 03:55:45;;;;;;;23.35;7.03;;;;;;;5.77;100.00;102476.03;4994575;28;20508;-44
2022/03/28 03:58:11;;;;;;;30.10;7.53;;;;;;;5.77;100.00;102477.81;4994109;28;20056;-48
2022/03/28 04:00:36;;;;;;;28.98;7.60;;;;;;;5.74;100.00;102476.22;5001725;28;20046;-47
2022/03/28 04:03:03;;;;;;;25.83;7.25;;;;;;;5.72;100.00;102470.16;5013285;28;20030;-43
2022/03/28 04:05:28;;;;;;;26.35;7.43;;;;;;;5.67;100.00;102463.38;5013009;28;20040;-44
2022/03/28 04:07:53;;;;;;;18.10;6.35;;;;;;;5.65;100.00;102462.63;5011214;28;20033;-44
2022/03/28 04:10:19;;;;;;;28.92;7.47;;;;;;;5.65;100.00;102460.84;4993828;28;20080;-45
2022/03/28 04:12:44;;;;;;;26.50;7.43;;;;;;;5.63;100.00;102460.06;5012157;28;20057;-47
2022/03/28 04:15:10;;;;;;;20.73;6.78;;;;;;;5.57;100.00;102458.63;5013278;28;20539;-44
2022/03/28 04:17:43;;;;;;;26.08;7.45;;;;;;;5.55;100.00;102460.53;5009873;28;20291;-46
2022/03/28 04:20:14;;;;;;;26.00;7.72;;;;;;;5.52;100.00;102459.84;4999589;28;20025;-47
2022/03/28 04:22:40;;;;;;;32.72;7.50;;;;;;;5.49;100.00;102449.44;5002348;28;20563;-46
2022/03/28 04:25:07;;;;;;;28.88;7.68;;;;;;;5.44;100.00;102451.50;4993774;28;20018;-44
2022/03/28 04:27:33;;;;;;;28.15;8.13;;;;;;;5.36;100.00;102446.63;4994155;28;20037;-43
2022/03/28 04:29:59;;;;;;;29.45;7.38;;;;;;;5.30;100.00;102449.63;5006010;28;20025;-46
2022/03/28 04:32:24;;;;;;;23.67;7.10;;;;;;;5.27;100.00;102453.28;5013691;28;20464;-46
2022/03/28 04:34:49;;;;;;;24.05;7.88;;;;;;;5.25;100.00;102452.53;5010724;28;20084;-43
2022/03/28 04:37:14;;;;;;;33.10;7.47;;;;;;;5.16;100.00;102455.69;5011332;28;20555;-46
2022/03/28 04:39:40;;;;;;;27.20;7.15;;;;;;;5.08;100.00;102452.63;5013632;28;20029;-44
2022/03/28 04:42:05;;;;;;;22.88;7.25;;;;;;;5.04;100.00;102447.50;4997534;28;20511;-45
2022/03/28 04:44:31;;;;;;;28.25;7.30;;;;;;;5.01;100.00;102450.31;4998939;28;20103;-44
2022/03/28 04:46:56;;;;;;;30.10;6.88;;;;;;;5.03;100.00;102458.19;5005272;28;20455;-45
2022/03/28 04:49:21;;;;;;;25.98;6.90;;;;;;;4.99;100.00;102456.63;4994016;28;20033;-47
2022/03/28 04:51:46;;;;;;;30.27;7.13;;;;;;;4.96;100.00;102464.75;4997398;28;20037;-46
2022/03/28 04:54:12;;;;;;;29.10;7.57;;;;;;;4.97;100.00;102466.44;4993278;28;20048;-45
2022/03/28 04:56:37;;;;;;;23.90;6.50;;;;;;;4.99;100.00;102465.44;5010288;28;20029;-45
2022/03/28 04:59:02;;;;;;;25.27;7.20;;;;;;;5.01;100.00;102460.91;5008961;28;20041;-46
2022/03/28 05:01:28;;;;;;;21.27;6.28;;;;;;;5.01;100.00;102462.72;4992216;28;20387;-42
2022/03/28 05:03:53;;;;;;;23.48;7.20;;;;;;;5.02;100.00;102452.03;4974352;28;20041;-46
2022/03/28 05:06:18;;;;;;;23.30;6.45;;;;;;;5.04;100.00;102459.88;4992343;28;20048;-43
2022/03/28 05:08:44;;;;;;;23.08;6.65;;;;;;;5.03;100.00;102459.03;4998647;28;20021;-45
2022/03/28 05:11:09;;;;;;;21.08;6.32;;;;;;;5.01;100.00;102449.47;5013015;28;20029;-46
2022/03/28 05:13:34;;;;;;;25.27;6.82;;;;;;;5.00;100.00;102447.75;5004524;28;20029;-46
2022/03/28 05:15:59;;;;;;;25.25;7.18;;;;;;;4.97;100.00;102453.22;4995201;28;20115;-44
2022/03/28 05:18:25;;;;;;;27.17;7.35;;;;;;;4.94;100.00;102456.03;4992069;28;20303;-46
2022/03/28 05:20:50;;;;;;;27.90;6.93;;;;;;;4.91;100.00;102453.56;4994671;28;20030;-43
2022/03/28 05:23:16;;;;;;;30.83;7.30;;;;;;;4.92;100.00;102447.31;5000487;28;20037;-46
2022/03/28 05:25:41;;;;;;;30.85;7.53;;;;;;;4.91;100.00;102442.97;5012795;28;20026;-43
2022/03/28 05:28:06;;;;;;;28.77;6.55;;;;;;;4.93;100.00;102454.31;4995649;28;20042;-45
2022/03/28 05:30:31;;;;;;;23.73;7.15;;;;;;;4.94;100.00;102453.38;4991525;28;20030;-44
2022/03/28 05:32:57;;;;;;;31.13;6.75;;;;;;;4.91;100.00;102446.47;4992226;28;20029;-44
2022/03/28 05:35:22;;;;;;;21.75;6.30;;;;;;;4.89;100.00;102444.84;4993846;28;20121;-45
2022/03/28 05:37:47;;;;;;;23.23;6.57;;;;;;;4.91;100.00;102448.28;5007048;28;20109;-44
2022/03/28 05:40:13;;;;;;;26.00;6.68;;;;;;;4.88;100.00;102446.63;4991561;28;20326;-44
2022/03/28 05:42:39;;;;;;;26.95;7.10;;;;;;;4.89;100.00;102451.00;5014577;28;20025;-47
2022/03/28 05:45:04;;;;;;;24.35;6.68;;;;;;;4.93;100.00;102441.09;5014830;28;20266;-43
2022/03/28 05:47:30;;;;;;;27.38;6.80;;;;;;;4.93;100.00;102451.69;5015414;28;20068;-47
2022/03/28 05:49:55;;;;;;;33.75;6.95;;;;;;;4.95;100.00;102447.16;5012127;28;20025;-43
2022/03/28 05:52:20;;;;;;;30.27;7.03;;;;;;;4.98;100.00;102445.19;5000410;28;20029;-44
2022/03/28 05:54:46;;;;;;;24.25;6.53;;;;;;;5.00;100.00;102442.44;5015811;28;20040;-43
2022/03/28 05:57:11;;;;;;;25.83;7.10;;;;;;;4.96;100.00;102438.28;5006628;28;20079;-45
2022/03/28 05:59:37;;;;;;;24.00;7.15;;;;;;;4.90;100.00;102446.56;5009814;28;20713;-45
2022/03/28 06:02:03;;;;;;;27.90;6.68;;;;;;;4.90;100.00;102439.44;4995231;28;20120;-46
2022/03/28 06:04:29;;;;;;;23.85;6.57;;;;;;;4.92;100.00;102432.31;5010748;28;20538;-44
2022/03/28 06:06:54;;;;;;;32.15;7.45;;;;;;;4.99;100.00;102423.06;4997934;28;20084;-46
2022/03/28 06:09:19;;;;;;;28.50;6.80;;;;;;;5.06;100.00;102426.22;5016221;28;20080;-47
2022/03/28 06:11:44;;;;;;;33.17;7.53;;;;;;;5.12;100.00;102427.66;5031428;28;20114;-45
2022/03/28 06:14:10;;;;;;;28.77;7.15;;;;;;;5.16;100.00;102429.19;5016358;28;20029;-46
2022/03/28 06:16:36;;;;;;;29.60;7.20;;;;;;;5.25;100.00;102435.78;5010251;28;20026;-45
2022/03/28 06:19:01;;;;;;;32.03;6.85;;;;;;;5.28;100.00;102423.22;5011498;28;20499;-43
2022/03/28 06:21:26;;;;;;;34.20;8.02;;;;;;;5.31;100.00;102431.00;4996783;28;20032;-45
2022/03/28 06:23:52;;;;;;;47.08;8.13;;;;;;;5.35;100.00;102429.88;5010923;28;20129;-44
2022/03/28 06:26:18;;;;;;;43.53;8.55;;;;;;;5.39;100.00;102420.78;5006243;28;20038;-46
2022/03/28 06:28:44;;;;;;;45.25;7.70;;;;;;;5.46;100.00;102425.75;4997373;28;20022;-43
2022/03/28 06:31:10;;;;;;;48.08;8.40;;;;;;;5.56;100.00;102426.91;5004901;28;20034;-46
2022/03/28 06:33:35;;;;;;;39.22;7.35;;;;;;;5.60;100.00;102421.34;4995418;28;20388;-48
2022/03/28 06:36:03;;;;;;;44.65;8.35;;;;;;;5.66;100.00;102421.94;4998675;28;20353;-46
2022/03/28 06:38:28;;;;;;;35.75;8.55;;;;;;;5.72;100.00;102430.38;5014305;28;20067;-47
2022/03/28 06:40:53;;;;;;;36.83;8.00;;;;;;;5.81;100.00;102415.72;5014225;28;20099;-44
2022/03/28 06:43:19;;;;;;;33.53;7.97;;;;;;;5.91;100.00;102416.88;5013753;28;20071;-44
2022/03/28 06:45:45;;;;;;;33.80;7.72;;;;;;;5.97;100.00;102427.16;5012818;28;20053;-43
2022/03/28 06:48:10;;;;;;;38.20;9.00;;;;;;;6.03;100.00;102425.94;5011641;28;20029;-47
2022/03/28 06:50:35;;;;;;;32.75;7.95;;;;;;;6.06;100.00;102431.06;5000994;28;20584;-44
2022/03/28 06:53:01;;;;;;;30.45;8.40;;;;;;;6.12;100.00;102428.03;5004139;28;20029;-43
2022/03/28 06:55:26;;;;;;;32.47;8.32;;;;;;;6.19;100.00;102432.97;5014213;28;20048;-44
2022/03/28 06:57:52;;;;;;;32.92;8.40;;;;;;;6.24;100.00;102429.06;5013413;28;20430;-46
2022/03/28 07:00:18;;;;;;;30.13;8.45;;;;;;;6.33;100.00;102420.56;5012643;28;20048;-44
2022/03/28 07:02:44;;;;;;;34.15;8.02;;;;;;;6.41;100.00;102429.84;5012003;28;20037;-48
2022/03/28 07:05:10;;;;;;;33.90;8.43;;;;;;;6.47;100.00;102427.66;5010913;28;20030;-50
2022/03/28 07:07:43;;;;;;;32.95;8.93;;;;;;;6.54;100.00;102421.03;5010843;28;20037;-47
2022/03/28 07:10:10;;;;;;;35.67;9.50;;;;;;;6.55;100.00;102405.94;5013934;28;20083;-47
2022/03/28 07:12:37;;;;;;;37.28;9.55;;;;;;;6.71;100.00;102406.69;5014271;28;20508;-47
2022/03/28 07:15:03;;;;;;;36.28;9.40;;;;;;;6.77;100.00;102409.91;4993068;28;20113;-45
2022/03/28 07:17:28;;;;;;;39.83;9.65;;;;;;;6.84;100.00;102413.88;5010737;28;20167;-46
2022/03/28 07:19:53;;;;;;;36.15;8.90;;;;;;;6.92;100.00;102403.59;5007717;28;20080;-46
2022/03/28 07:22:18;;;;;;;31.15;8.68;;;;;;;7.01;100.00;102404.81;4993184;28;20092;-45
2022/03/28 07:24:44;;;;;;;40.53;9.63;;;;;;;7.08;100.00;102407.00;5010776;28;20029;-44
2022/03/28 07:27:09;;;;;;;30.35;9.30;;;;;;;7.18;100.00;102407.25;5013431;28;20508;-45
2022/03/28 07:29:34;;;;;;;36.58;9.50;;;;;;;7.30;100.00;102405.59;5007797;28;20030;-44
2022/03/28 07:31:59;;;;;;;38.90;9.73;;;;;;;7.39;100.00;102404.13;5008983;28;20320;-44
2022/03/28 07:34:32;;;;;;;32.83;9.23;;;;;;;7.48;100.00;102403.50;5012501;28;20112;-44
2022/03/28 07:36:58;;;;;;;39.03;10.40;;;;;;;7.58;100.00;102398.44;4965805;28;1019066;-45
2022/03/28 07:39:25;;;;;;;36.25;9.55;;;;;;;7.68;100.00;102398.66;5014924;28;20087;-43
2022/03/28 07:41:51;;;;;;;32.20;9.63;;;;;;;7.81;100.00;102386.25;5013103;28;20115;-45
2022/03/28 07:44:18;;;;;;;34.58;10.45;;;;;;;7.98;100.00;102390.41;5013773;28;20048;-47
2022/03/28 07:46:44;;;;;;;33.85;10.43;;;;;;;8.10;100.00;102388.69;5013251;28;20464;-45
2022/03/28 07:49:13;;;;;;;30.77;9.73;;;;;;;8.14;100.00;102391.00;5012554;28;20040;-45
2022/03/28 07:51:38;;;;;;;37.30;9.70;;;;;;;8.33;100.00;102384.41;5012394;28;20254;-43
2022/03/28 07:54:04;;;;;;;36.20;10.60;;;;;;;8.43;100.00;102390.81;4995089;28;20034;-43
2022/03/28 07:56:31;;;;;;;33.38;9.93;;;;;;;8.55;100.00;102395.28;4998591;28;20439;-43
2022/03/28 07:58:57;;;;;;;34.33;11.07;;;;;;;8.68;100.00;102386.41;5013472;28;20128;-44
2022/03/28 08:01:23;;;;;;;34.58;10.23;;;;;;;8.77;100.00;102377.72;5013229;28;20037;-45
2022/03/28 08:03:48;;;;;;;41.22;10.88;;;;;;;8.94;100.00;102369.38;5008181;28;20041;-44
2022/03/28 08:06:13;;;;;;;37.33;11.68;;;;;;;9.08;100.00;102363.03;5008580;28;20384;-48
2022/03/28 08:08:38;;;;;;;38.22;11.95;;;;;;;9.29;100.00;102371.22;5000840;28;20128;-45
2022/03/28 08:11:07;;;;;;;31.38;11.70;;;;;;;9.34;99.97;102366.41;5010354;28;20034;-45
2022/03/28 08:13:34;;;;;;;46.85;11.65;;;;;;;9.43;100.00;102356.00;5014152;28;20032;-45
2022/03/28 08:15:59;;;;;;;36.88;11.70;;;;;;;9.56;97.75;102366.59;5005632;28;20414;-44
2022/03/28 08:18:26;;;;;;;34.40;11.85;;;;;;;9.71;98.98;102370.75;5005211;28;20029;-44
2022/03/28 08:20:51;;;;;;;42.50;12.43;;;;;;;9.83;98.96;102371.63;5011304;28;20041;-46
2022/03/28 08:23:19;;;;;;;37.80;12.93;;;;;;;9.89;96.94;102357.81;4992787;28;20022;-42
2022/03/28 08:25:45;;;;;;;40.50;13.90;;;;;;;9.95;94.86;102365.34;5007812;28;20649;-44
2022/03/28 08:28:10;;;;;;;39.65;12.55;;;;;;;10.03;95.38;102354.03;5007892;28;20279;-44
2022/03/28 08:30:36;;;;;;;37.08;13.38;;;;;;;10.14;95.14;102366.56;4990815;28;20064;-48
2022/03/28 08:33:01;;;;;;;43.30;14.13;;;;;;;10.18;94.95;102358.22;4993240;28;20126;-45
2022/03/28 08:35:27;;;;;;;46.53;14.13;;;;;;;10.22;95.22;102356.13;4997846;28;20034;-47
2022/03/28 08:37:53;;;;;;;36.67;12.68;;;;;;;10.35;94.85;102353.34;5008469;28;20124;-46
2022/03/28 08:40:18;;;;;;;45.17;13.18;;;;;;;10.56;94.56;102350.81;5013090;28;20195;-45
2022/03/28 08:42:44;;;;;;;58.97;16.38;;;;;;;10.74;93.69;102348.44;5010564;28;20040;-45
2022/03/28 08:45:13;;;;;;;36.55;14.10;;;;;;;10.83;90.89;102345.88;5003893;28;20029;-45
2022/03/28 08:47:42;;;;;;;43.63;13.85;;;;;;;10.87;92.67;102345.63;4992954;28;20095;-45
2022/03/28 08:50:08;;;;;;;43.03;14.32;;;;;;;11.02;92.29;102344.34;4997770;28;20025;-46
2022/03/28 08:52:33;;;;;;;38.75;14.20;;;;;;;11.14;89.87;102346.00;5013232;28;20097;-45
2022/03/28 08:54:59;;;;;;;40.30;14.13;;;;;;;11.23;88.70;102351.56;5009203;28;20084;-46
2022/03/28 08:57:24;;;;;;;42.67;14.07;;;;;;;11.26;88.45;102352.16;5011001;28;20075;-47
2022/03/28 08:59:49;;;;;;;39.80;14.48;;;;;;;11.37;88.60;102348.56;4995533;28;20025;-44
2022/03/28 09:02:36;;;;;;;35.78;13.75;;;;;;;11.48;88.43;102345.84;4992333;28;20061;-48
2022/03/28 09:05:02;;;;;;;41.97;15.95;;;;;;;11.56;86.26;102347.88;4994938;28;20037;-44
2022/03/28 09:07:28;;;;;;;41.35;15.93;;;;;;;11.67;86.36;102342.44;5007922;28;20519;-46
2022/03/28 09:09:57;;;;;;;41.97;16.60;;;;;;;11.77;85.22;102346.03;5006427;28;20026;-44
2022/03/28 09:12:24;;;;;;;41.50;15.73;;;;;;;11.96;85.27;102344.47;5013117;28;20037;-45
2022/03/28 09:14:56;;;;;;;46.65;16.20;;;;;;;12.01;84.38;102344.06;4997611;28;20572;-43
2022/03/28 09:17:21;;;;;;;39.15;16.67;;;;;;;12.06;83.73;102336.47;4991575;28;20318;-44
2022/03/28 09:19:54;;;;;;;50.30;17.20;;;;;;;12.22;85.22;102338.66;5006856;28;20276;-47
2022/03/28 09:22:24;;;;;;;39.67;15.73;;;;;;;12.32;84.21;102326.13;4992515;28;20025;-44
2022/03/28 09:24:54;;;;;;;43.92;15.95;;;;;;;12.42;83.98;102331.53;4994052;28;20102;-45
2022/03/28 09:27:22;;;;;;;39.45;16.23;;;;;;;12.43;82.61;102333.25;4998806;28;20030;-42
2022/03/28 09:30:14;;;;;;;45.63;16.45;;;;;;;12.51;83.49;102333.41;4992390;28;20045;-43
2022/03/28 09:32:45;;;;;;;43.72;15.80;;;;;;;12.67;83.33;102328.34;5010774;28;20054;-45
2022/03/28 09:35:10;;;;;;;49.25;19.63;;;;;;;12.83;81.05;102332.31;4996444;28;21533;-46
2022/03/28 09:37:57;;;;;;;59.17;22.08;;;;;;;12.89;80.63;102323.72;5004849;28;20555;-47
2022/03/28 09:40:42;;;;;;;55.67;21.50;;;;;;;12.96;82.44;102314.13;5004594;28;20357;-46
2022/03/28 09:43:29;;;;;;;44.42;18.10;;;;;;;13.24;81.36;102320.47;5012993;28;20124;-47
2022/03/28 09:45:57;;;;;;;54.22;20.15;;;;;;;13.22;77.17;102327.84;4993126;28;20033;-43
2022/03/28 09:48:27;;;;;;;57.60;24.48;;;;;;;13.27;76.57;102319.34;5009104;28;20044;-45
2022/03/28 09:51:04;;;;;;;55.10;22.17;;;;;;;13.31;75.55;102311.88;4992350;28;20121;-46
2022/03/28 09:53:37;;;;;;;46.38;20.33;;;;;;;13.42;77.18;102317.09;4995590;28;20040;-45
2022/03/28 09:56:05;;;;;;;47.30;18.00;;;;;;;13.66;77.62;102313.94;5010338;28;20021;-45
2022/03/28 09:58:43;;;;;;;42.63;17.77;;;;;;;13.96;75.85;102312.00;5016516;28;20053;-43
2022/03/28 10:01:14;;;;;;;44.13;17.98;;;;;;;14.19;74.86;102301.75;5005482;28;20045;-44
2022/03/28 10:03:40;;;;;;;46.92;18.83;;;;;;;14.38;74.48;102299.94;4992313;28;20034;-48
2022/03/28 10:06:07;;;;;;;47.75;18.40;;;;;;;14.34;70.86;102302.06;4992372;28;20102;-43
2022/03/28 10:08:35;;;;;;;45.05;18.55;;;;;;;14.26;70.90;102294.75;5010980;28;20025;-47
2022/03/28 10:11:00;;;;;;;53.67;19.90;;;;;;;14.28;70.21;102297.31;5004781;28;20862;-43
2022/03/28 10:13:26;;;;;;;53.33;17.38;;;;;;;14.37;70.59;102291.00;5004224;28;20021;-45
2022/03/28 10:15:53;;;;;;;45.35;19.75;;;;;;;14.61;72.32;102285.09;5009889;28;20446;-46
2022/03/28 10:18:18;;;;;;;50.13;19.27;;;;;;;14.89;71.04;102290.41;4990059;28;20080;-45
2022/03/28 10:20:46;;;;;;;42.97;19.65;;;;;;;15.11;69.16;102292.63;4992332;28;20033;-46
2022/03/28 10:23:14;;;;;;;44.00;18.92;;;;;;;15.08;68.08;102290.22;4992613;28;20041;-46
2022/03/28 10:25:41;;;;;;;45.58;19.85;;;;;;;15.18;67.23;102281.25;4993255;28;20493;-45
2022/03/28 10:28:08;;;;;;;49.92;22.05;;;;;;;15.16;66.81;102281.41;5012363;28;20026;-47
2022/03/28 10:30:33;;;;;;;47.75;21.02;;;;;;;15.28;67.53;102282.00;5008363;28;20029;-45
2022/03/28 10:33:14;;;;;;;46.22;19.92;;;;;;;15.45;66.35;102269.50;4994418;28;20333;-44
2022/03/28 10:35:55;;;;;;;40.63;17.92;;;;;;;15.57;65.43;102268.22;5001247;28;20040;-44
2022/03/28 10:38:21;;;;;;;;;;;;;;;15.74;65.15;102263.75;5001124;28;20268;-45
2022/03/28 10:40:58;;;;;;;34.92;16.60;;;;;;;15.69;62.83;102263.41;5008701;28;19943;-46
2022/03/28 10:43:27;;;;;;;40.17;19.33;;;;;;;15.58;61.45;102260.97;5013486;28;20478;-46
2022/03/28 10:46:00;;;;;;;42.88;18.38;;;;;;;15.50;63.39;102256.41;4995097;28;20029;-47
2022/03/28 10:48:48;;;;;;;42.83;18.85;;;;;;;15.65;64.51;102249.41;5000360;28;20029;-52
2022/03/28 10:51:29;;;;;;;37.70;17.10;;;;;;;15.78;64.08;102248.16;5014165;28;20090;-50
2022/03/28 10:53:58;;;;;;;39.97;18.17;;;;;;;15.79;61.92;102245.31;5030260;28;20337;-49
2022/03/28 10:56:40;;;;;;;44.72;19.65;;;;;;;15.82;62.34;102241.44;5015547;28;20113;-52
2022/03/28 10:59:17;;;;;;;43.65;19.70;;;;;;;15.88;62.19;102248.88;5015446;28;20090;-50
2022/03/28 11:01:49;;;;;;;40.25;18.60;;;;;;;15.73;61.56;102242.38;5013504;28;20025;-52
2022/03/28 11:04:22;;;;;;;37.92;18.58;;;;;;;15.70;60.25;102243.56;5012015;28;20168;-50
2022/03/28 11:07:00;;;;;;;38.70;17.17;;;;;;;15.73;62.50;102234.28;5015352;28;20237;-49
2022/03/28 11:09:41;;;;;;;35.40;17.02;;;;;;;16.00;61.57;102231.44;5004483;28;20036;-48
2022/03/28 11:12:39;;;;;;;37.57;17.13;;;;;;;16.17;60.73;102235.03;4995569;28;20420;-49
2022/03/28 11:15:19;;;;;;;33.70;16.17;;;;;;;16.37;60.10;102235.53;4997944;28;20037;-50
2022/03/28 11:17:57;;;;;;;42.25;19.02;;;;;;;16.53;60.37;102232.06;4985304;28;20133;-50
2022/03/28 11:20:24;;;;;;;41.83;18.92;;;;;;;16.57;57.80;102222.59;5014807;28;20047;-51